Ada, MI

7:56 AM EDT on September 03, 2015 (GMT -0400)
Timber Canyon | | Change Station
CLOSE
Current Station
Personal Weather Station
Location: Ada, MI
Elevation: 755 ft
Nearby Weather Stations

Elev 755 ft 42.93 °N, 85.48 °W | Updated 56 seconds ago

Mostly Cloudy
Mostly Cloudy
70.5 °F
Feels Like 70.5 °F
N
0.0
Wind Variable Wind from SE
Gusts 0.0 mph

Today
High -- | Low -- °F
--% Chance of Precip.
Yesterday
High -- | Low -- °F
Precip. -- in
7:08 AM 8:13 PM
Waning Gibbous, 71% visible
Pressure 29.93 in
Visibility 3.0 miles
Clouds Few 5000 ft
Scattered Clouds 10000 ft
Mostly Cloudy 22000 ft
Dew Point 70 °F
Humidity 97%
Rainfall 0.00 in
Snow Depth Not available.
UV 0 out of 12
Pollen 9.10 out of 12
Air Quality Not available.
Flu Activity Not available.
METAR KGRR 031153Z 17004KT 3SM BR FEW050 SCT100 BKN220 22/21 A2995 RMK AO2 TSE10 SLP135 60000 T02170211 10244 20211 56005
Pressure 29.93 in
Visibility 3.0 miles
Clouds Few 5000 ft
Scattered Clouds 10000 ft
Mostly Cloudy 22000 ft
Dew Point 70 °F
Humidity 97%
Rainfall 0.00 in
Snow Depth Not available.
UV 0 out of 12
Pollen 9.10 out of 12
Air Quality Not available.
Flu Activity Not available.
METAR KGRR 031153Z 17004KT 3SM BR FEW050 SCT100 BKN220 22/21 A2995 RMK AO2 TSE10 SLP135 60000 T02170211 10244 20211 56005

10-Day Weather Forecast

×

Almanac

Astronomy

Sep. 03, 2015 Rise Set
Actual Time
Civil Twilight
Nautical Twilight
Astronomical Twilight
Moon
Length of Visible Light
Length of Day
Tomorrow will be .
, % of the Moon is Illuminated

Today's Extremes

State Highs State Lows

Community

WunderPhotos

Upload Photos

1,851,941 photos uploaded!

WunderBlogs® & News

Nearby

Air Quality

  Air Quality AQ Index Pollutant
Not available.

Snow Depth

Station Depth Elevation

Earthquake Activity

City Distance Mag. Time & Date
Minimum magnitude displayed is 2.5.

Coastal Water Temperatures

Place Temperature

Stations

Nearby Weather Stations

Station Location Temp. Windchill Dew Point Humidity Wind Precip. Elev Updated Type